Coppermine, Canada
Current Conditions -  °F | °C
As of 4:00 AM on Sunday 23 Nov 2014 (Local Time) from CYCO Reporting Station
Blowing Snow Blowing Snow  
Wind Chill: -38°   Ceiling: Unl
Heat Index: -24°   Visibility: 12mi
Dew Point: -27°   Wind: 18mph
Humidity: 77%   Direction: 250°WSW
Pressure: 29.91"   Gusts: NA
Location:  67.83°N, 115.08°W
Report Text: CYCO 231100Z 25016KT 12SM DRSN FEW020 M24/M27 A2991 RMK SC1 TRSC FROIN SLP133
Loading
Personal Weather Stations






























Interactive Weather Map New forecast layout! Learn more

10-Day Weather Forecast

Advertisements
Track Severe Weather on mobile